Flight Track Log - Related Links

Times and Time Zones

All times are in EDT time to prevent confusion due to time zone crossing. See the AWE1640 flight status page for this flight to view local times or setup timezone preferences in your user account.

Time Position Orientation Groundspeed Altitude Reporting Facility
EDT Latitude Longitude Course Direction KTS MPH feet Rate Location/Type
Thu 05:08:12 AM 28.4280 -81.3150 210° Southwest  Level FlightAware ADS-B
Thu 05:09:22 AM 28.4290 -81.3150 360° North 11 Level FlightAware ADS-B
Thu 05:12:00 AM 28.7140 -81.3428 350° North  Level FlightAware Approximate
Thu 05:13:00 AM 28.8223 -81.3500 North  Level FlightAware Approximate
Thu 05:14:00 AM 28.9308 -81.3597 355° North  Level FlightAware Approximate
Thu 05:15:00 AM 29.0387 -81.3744 350° North  Level FlightAware Approximate
Thu 05:16:00 AM 29.1469 -81.3833 North  Level FlightAware Approximate
Thu 05:17:00 AM 29.2536 -81.4000 North  Level FlightAware Approximate
Thu 05:18:00 AM 29.3622 -81.4062 355° North  Level FlightAware Approximate
Thu 05:19:00 AM 29.4706 -81.4167 North  Level FlightAware Approximate
Thu 05:20:00 AM 29.5793 -81.4213 355° North  Level FlightAware Approximate
Thu 05:21:00 AM 29.6877 -81.4321 355° North  Level FlightAware Approximate
Thu 05:22:00 AM 29.7833 -81.4403 356° North  Level FlightAware Approximate
Thu 05:23:00 AM 29.8789 -81.4482 356° North  Level FlightAware Approximate
Thu 05:24:00 AM 29.9736 -81.4647 350° North  Level FlightAware Approximate
Thu 05:25:00 AM 30.0691 -81.4748 355° North  Level FlightAware Approximate
Thu 05:26:00 AM 30.1646 -81.4839 355° North  Level FlightAware Approximate
Thu 05:26:48 AM 28.4290 -81.3170 221° Southwest 9 10  Level FlightAware ADS-B
Thu 05:27:03 AM 28.4300 -81.3170 360° North 9 10 40 Level FlightAware ADS-B
Thu 05:27:18 AM 28.4300 -81.3180 270° West 7 8 41 Level FlightAware ADS-B
Thu 05:27:56 AM 28.4310 -81.3180 360° North 10 12 43 Level FlightAware ADS-B
Thu 05:28:28 AM 28.4330 -81.3180 360° North 12 14 47 Level FlightAware ADS-B
Thu 05:28:58 AM 28.4350 -81.3180 360° North 11 13 51 Level FlightAware ADS-B
Thu 05:29:28 AM 28.4370 -81.3180 360° North 12 14 56 Level FlightAware ADS-B
Thu 05:29:58 AM 28.4380 -81.3180 360° North 12 14 62 Level FlightAware ADS-B
Thu 05:30:44 AM 28.4400 -81.3190 336° Northwest 14 16 69 Level FlightAware ADS-B
Thu 05:30:58 AM 28.4420 -81.3190 360° North 13 15 84 Level FlightAware ADS-B
Thu 05:31:23 AM 28.4430 -81.3190 360° North 14 16 90 Level FlightAware ADS-B
Thu 05:31:38 AM 28.4440 -81.3190 360° North 15 17 103 Level FlightAware ADS-B
Thu 05:32:08 AM 28.4470 -81.3190 360° North 16 18 113 Level FlightAware ADS-B
Thu 05:32:43 AM 28.4480 -81.3200 319° Northwest 12 14 138 Level FlightAware ADS-B
Thu 05:33:08 AM 28.4480 -81.3220 270° West 13 15 189 Level FlightAware ADS-B
Thu 05:33:48 AM 28.4410 -81.3220 180° South 110 127 257 Level FlightAware ADS-B
Thu 05:34:18 AM 28.4190 -81.3220 180° South 176 203 300 1,560 Climbing FlightAware ADS-B
Thu 05:34:38 AM 28.4040 -81.3180 167° South 152 175 1,300 2,250 Climbing FlightAware ADS-B
Thu 05:34:58 AM 28.3920 -81.3070 141° Southeast 164 189 1,800 1,400 Climbing FlightAware ADS-B
Thu 05:35:08 AM 28.3880 -81.2990 120° Southeast 179 206 2,000 1,200 Climbing FlightAware ADS-B
Thu 05:35:18 AM 28.3860 -81.2890 103° East 193 222 2,200 1,050 Climbing FlightAware ADS-B
Thu 05:35:48 AM 28.3910 -81.2560 80° East 230 265 2,700 1,600 Climbing FlightAware ADS-B
Thu 05:36:03 AM 28.3950 -81.2380 76° East 238 274 3,400 2,600 Climbing FlightAware ADS-B
Thu 05:36:18 AM 28.4070 -81.2240 46° Northeast 247 284 4,000 2,129 Climbing FlightAware ADS-B
Thu 05:36:34 AM 28.4230 -81.2160 24° Northeast 263 303 4,500 1,733 Climbing FlightAware ADS-B
Thu 05:37:03 AM 28.4610 -81.2180 357° North 292 336 5,300 1,932 Climbing FlightAware ADS-B
Thu 05:37:33 AM 28.5030 -81.2240 353° North 293 337 6,400 1,821 Climbing FlightAware ADS-B
Thu 05:37:59 AM 28.5360 -81.2290 352° North 296 341 7,000 1,200 Climbing FlightAware ADS-B
Thu 05:38:28 AM 28.5770 -81.2400 347° North 296 341 7,500 778 Climbing FlightAware ADS-B
Thu 05:38:53 AM 28.6120 -81.2500 346° North 298 343 7,700 327 Climbing FlightAware ADS-B
Thu 05:39:23 AM 28.6530 -81.2620 346° North 300 345 7,800 200 Climbing FlightAware ADS-B
Thu 05:39:53 AM 28.6950 -81.2740 346° North 297 342 7,900 873 Climbing FlightAware ADS-B
Thu 05:40:18 AM 28.7290 -81.2830 347° North 299 344 8,600 1,964 Climbing FlightAware ADS-B
Thu 05:40:48 AM 28.7710 -81.2950 346° North 313 360 9,700 1,944 Climbing FlightAware ADS-B
Thu 05:41:29 AM 28.8310 -81.3120 346° North 333 383 10,900 1,625 Climbing FlightAware ADS-B
Thu 05:42:24 AM 28.9180 -81.3160 358° North 348 400 12,300 1,832 Climbing FlightAware ADS-B
Thu 05:43:04 AM 28.9790 -81.2880 22° Northeast 350 403 13,800 2,175 Climbing FlightAware ADS-B
Thu 05:43:44 AM 29.0410 -81.2590 22° Northeast 361 415 15,200 2,025 Climbing FlightAware ADS-B
Thu 05:44:24 AM 29.1060 -81.2300 21° North 361 415 16,500 -2,168 Climbing FlightAware ADS-B
Thu 05:45:43 AM 28.8650 -81.3220 198° South 314 361 10,900 -2,922 Descending FlightAware ADS-B
Thu 05:46:19 AM 28.9080 -81.3340 346° North 314 361 10,900  Level FlightAware ADS-B
Thu 05:47:08 AM 28.9670 -81.3510 346° North 314 361 10,900 6,288 Level FlightAware ADS-B
Thu 05:48:03 AM 29.4714 -81.1225 346° North 383 441 21,800 2,024 Climbing Jacksonville Center
Thu 05:54:06 AM 30.1580 -80.9670 346° North 411 473 25,000 474 Climbing FlightAware ADS-B
Thu 05:54:48 AM 30.2340 -80.9500 11° North 412 474 25,000  Level FlightAware ADS-B
Thu 05:55:30 AM 30.3140 -80.9320 11° North 412 474 25,000  Level FlightAware ADS-B
Thu 05:56:50 AM 30.3930 -80.9140 11° North 413 475 25,000  Level FlightAware ADS-B
Thu 05:57:34 AM 30.3520 -80.9240 192° South 413 475 25,000  Level FlightAware ADS-B
Thu 05:58:14 AM 30.4150 -80.9090 12° North 413 475 25,000  Level FlightAware ADS-B
Thu 05:59:01 AM 30.4900 -80.8920 11° North 413 475 25,000  Level FlightAware ADS-B
Thu 05:59:47 AM 30.5640 -80.8760 11° North 413 475 25,000  Level FlightAware ADS-B
Thu 06:00:22 AM 30.6190 -80.8630 11° North 413 475 25,000  Level FlightAware ADS-B
Thu 06:01:01 AM 30.6820 -80.8490 11° North 413 475 25,000  Level FlightAware ADS-B
Thu 06:03:56 AM 31.2660 -80.7190 11° North 25,000  Level FlightAware ADS-B
Thu 06:04:35 AM 31.3460 -80.7010 11° North 417 480 25,000  Level FlightAware ADS-B
Thu 06:05:19 AM 31.4210 -80.6830 12° North 417 480 25,000  Level FlightAware ADS-B
Thu 06:08:39 AM 31.7430 -80.6100 11° North 417 480 25,000  Level FlightAware ADS-B
Thu 06:10:03 AM 31.9758 -80.5586 11° North 412 474 25,000  Level Jacksonville Center
Thu 06:11:03 AM 32.0922 -80.5311 11° North 412 474 25,000  Level Jacksonville Center
Thu 06:12:03 AM 32.1942 -80.5089 10° North 412 474 25,000  Level Jacksonville Center
Thu 06:13:03 AM 32.3086 -80.4814 11° North 412 474 25,000  Level Jacksonville Center
Thu 06:14:03 AM 32.4250 -80.4561 10° North 412 474 25,000  Level Jacksonville Center
Thu 06:15:03 AM 32.5414 -80.4283 11° North 412 474 25,000  Level Jacksonville Center
Thu 06:16:03 AM 32.6556 -80.4006 12° North 412 474 25,000  Level Jacksonville Center
Thu 06:21:40 AM 33.3020 -80.2470 12° North 428 493 25,000 -96 Level FlightAware ADS-B
Thu 06:22:18 AM 33.3970 -80.2250 11° North 428 493 24,400 -940 Descending FlightAware ADS-B
Thu 06:23:03 AM 33.4850 -80.2040 11° North 421 484 23,700 -1,037 Descending FlightAware ADS-B
Thu 06:23:39 AM 33.5510 -80.1880 11° North 416 479 23,000 -1,412 Descending FlightAware ADS-B
Thu 06:24:28 AM 33.6440 -80.1660 11° North 410 472 21,700 -1,551 Descending FlightAware ADS-B
Thu 06:25:08 AM 33.7220 -80.1730 356° North 404 465 20,700 -1,440 Descending FlightAware ADS-B
Thu 06:25:43 AM 33.7850 -80.1840 352° North 401 461 19,900 -1,000 Descending FlightAware ADS-B
Thu 06:26:38 AM 33.8790 -80.2000 352° North 401 461 19,200 -545 Descending FlightAware ADS-B
Thu 06:27:22 AM 33.9560 -80.2120 353° North 400 460 19,000 -682 Descending FlightAware ADS-B
Thu 06:28:06 AM 33.9370 -80.2090 173° South 394 453 18,200 -1,364 Descending FlightAware ADS-B
Thu 06:28:50 AM 34.1220 -80.2400 352° North 382 440 17,000 -1,364 Descending FlightAware ADS-B
Thu 06:29:34 AM 34.2020 -80.2540 352° North 377 434 16,200 -966 Descending FlightAware ADS-B
Thu 06:30:17 AM 34.2750 -80.2660 352° North 374 430 15,600 -1,116 Descending FlightAware ADS-B
Thu 06:31:00 AM 34.3490 -80.2790 352° North 368 423 14,600 -1,482 Descending FlightAware ADS-B
Thu 06:31:42 AM 34.4200 -80.2910 352° North 359 413 13,500 -1,537 Descending FlightAware ADS-B
Thu 06:32:22 AM 34.4850 -80.3020 352° North 350 403 12,500 -1,421 Descending FlightAware ADS-B
Thu 06:32:58 AM 34.5410 -80.3120 352° North 342 394 11,700 -1,297 Descending FlightAware ADS-B
Thu 06:33:36 AM 34.5960 -80.2980 12° North 325 374 10,900 -539 Descending FlightAware ADS-B
Thu 06:34:27 AM 34.6520 -80.2580 30° Northeast 325 374 10,900 -182 Level FlightAware ADS-B
Thu 06:34:42 AM 34.5970 -80.2030 141° Southeast 261 300 10,700 -200 Descending FlightAware ADS-B
Thu 06:35:27 AM 34.5720 -80.1510 120° Southeast 262 302 10,700  Level FlightAware ADS-B
Thu 06:36:06 AM 34.5460 -80.0950 119° Southeast 261 300 10,700  Level FlightAware ADS-B
Thu 06:37:20 AM 34.5090 -80.0150 119° Southeast 250 288 10,700  Level FlightAware ADS-B
Thu 06:37:56 AM 34.4920 -79.9770 118° Southeast 250 288 10,700  Level FlightAware ADS-B
Thu 06:39:58 AM 34.5580 -79.9120 39° Northeast 301 346 10,700  Level FlightAware ADS-B
Thu 06:40:35 AM 34.5760 -79.9600 294° West 301 346 10,700  Level FlightAware ADS-B
Thu 06:41:42 AM 34.6140 -80.0780 291° West 308 354 10,700  Level FlightAware ADS-B
Thu 06:42:28 AM 34.6360 -80.1430 292° West 305 351 10,700  Level FlightAware ADS-B
Thu 06:43:06 AM 34.6590 -80.2100 293° West 308 354 10,700  Level FlightAware ADS-B
Thu 06:43:52 AM 34.6850 -80.2860 293° West 305 351 10,700  Level FlightAware ADS-B
Thu 06:44:32 AM 34.7090 -80.3460 296° West 310 357 10,700  Level FlightAware ADS-B
Thu 06:44:54 AM 34.7320 -80.3750 314° West 311 358 10,700 -583 Level FlightAware ADS-B
Thu 06:45:44 AM 34.7820 -80.4380 314° West 309 356 10,000 -833 Descending FlightAware ADS-B
Thu 06:46:06 AM 34.8030 -80.4650 313° West 307 353 9,700 -1,000 Descending FlightAware ADS-B
Thu 06:46:26 AM 34.8230 -80.4890 315° West 305 351 9,300 -1,000 Descending FlightAware ADS-B
Thu 06:46:54 AM 34.8500 -80.5230 314° West 302 348 8,900 -679 Descending FlightAware ADS-B
Thu 06:47:19 AM 34.8740 -80.5540 313° West 302 348 8,700 -333 Descending FlightAware ADS-B
Thu 06:47:30 AM 34.8850 -80.5700 310° West 299 344 8,700  Level FlightAware ADS-B
Thu 06:48:00 AM 34.9040 -80.6150 297° West 297 342 8,700  Level FlightAware ADS-B
Thu 06:48:24 AM 34.9190 -80.6510 297° West 296 341 8,700  Level FlightAware ADS-B
Thu 06:48:52 AM 34.9390 -80.6910 301° West 301 346 8,700  Level FlightAware ADS-B
Thu 06:49:20 AM 34.9560 -80.7330 296° West 300 345 8,700  Level FlightAware ADS-B
Thu 06:49:46 AM 34.9730 -80.7720 298° West 300 345 8,700  Level FlightAware ADS-B
Thu 06:50:16 AM 34.9920 -80.8170 297° West 299 344 8,700  Level FlightAware ADS-B
Thu 06:50:34 AM 35.0070 -80.8420 306° West 307 353 8,700  Level FlightAware ADS-B
Thu 06:50:46 AM 35.0210 -80.8530 327° Northwest 313 360 8,700  Level FlightAware ADS-B
Thu 06:51:02 AM 35.0440 -80.8590 348° North 315 362 8,700  Level FlightAware ADS-B
Thu 06:51:30 AM 35.0850 -80.8640 354° North 312 359 8,700  Level FlightAware ADS-B
Thu 06:51:54 AM 35.1160 -80.8600 North 310 357 8,700  Level FlightAware ADS-B
Thu 06:52:29 AM 35.1630 -80.8370 22° Northeast 291 335 8,700  Level FlightAware ADS-B
Thu 06:52:44 AM 35.1840 -80.8310 13° North 276 318 8,700 -667 Level FlightAware ADS-B
Thu 06:53:14 AM 35.2210 -80.8280 North 266 306 8,200 -1,091 Descending FlightAware ADS-B
Thu 06:53:39 AM 35.2500 -80.8260 North 263 303 7,700 -1,200 Descending FlightAware ADS-B
Thu 06:54:09 AM 35.2870 -80.8240 North 259 298 7,100 -1,200 Descending FlightAware ADS-B
Thu 06:54:29 AM 35.3070 -80.8230 North 257 296 6,700 -1,200 Descending FlightAware ADS-B
Thu 06:54:54 AM 35.3380 -80.8210 North 254 292 6,200 -1,350 Descending FlightAware ADS-B
Thu 06:55:09 AM 35.3590 -80.8190 North 254 292 5,800 -1,333 Descending FlightAware ADS-B
Thu 06:55:39 AM 35.3920 -80.8170 North 250 288 5,200 -1,000 Descending FlightAware ADS-B
Thu 06:56:09 AM 35.4280 -80.8150 North 250 288 4,800 -600 Descending FlightAware ADS-B
Thu 06:56:29 AM 35.4520 -80.8140 North 254 292 4,700 -109 Descending FlightAware ADS-B
Thu 06:57:04 AM 35.4930 -80.8110 North 251 289 4,700  Level FlightAware ADS-B
Thu 06:57:48 AM 35.5390 -80.8080 North 250 288 4,700  Level FlightAware ADS-B
Thu 06:58:24 AM 35.5710 -80.8280 333° Northwest 245 282 4,700  Level FlightAware ADS-B
Thu 06:59:06 AM 35.5740 -80.8810 274° West 219 252 4,700 -439 Level FlightAware ADS-B
Thu 06:59:46 AM 35.5630 -80.9290 254° West 213 245 4,100 -771 Descending FlightAware ADS-B
Thu 07:00:16 AM 35.5530 -80.9460 234° Southwest 207 238 3,800 -600 Descending FlightAware ADS-B

Login

Don't have an account? Register now (free) for customized features, flight alerts, and more!